createdAt,value
2023-01-22T00:01:04.797Z,7.43
2023-01-22T00:03:52.401Z,9.33
2023-01-22T00:06:38.639Z,10.70
2023-01-22T00:09:25.309Z,10.23
2023-01-22T00:12:11.517Z,8.13
2023-01-22T00:14:58.041Z,19.57
2023-01-22T00:17:44.609Z,15.53
2023-01-22T00:20:31.130Z,13.43
2023-01-22T00:23:18.017Z,23.40
2023-01-22T00:26:13.287Z,9.47
2023-01-22T00:29:00.757Z,11.43
2023-01-22T00:31:48.243Z,8.33
2023-01-22T00:34:34.919Z,6.63
2023-01-22T00:37:21.541Z,8.40
2023-01-22T00:40:08.891Z,7.63
2023-01-22T00:42:55.091Z,8.33
2023-01-22T00:45:41.639Z,7.33
2023-01-22T00:48:28.249Z,6.87
2023-01-22T00:51:15.643Z,6.37
2023-01-22T00:54:02.177Z,6.23
2023-01-22T00:56:48.531Z,6.37
2023-01-22T00:59:35.301Z,7.47
2023-01-22T01:02:21.957Z,6.70
2023-01-22T01:05:08.664Z,6.77
2023-01-22T01:07:55.085Z,6.30
2023-01-22T01:10:41.515Z,6.30
2023-01-22T01:13:28.793Z,5.70
2023-01-22T01:16:18.487Z,5.83
2023-01-22T01:19:08.006Z,7.60
2023-01-22T01:21:54.233Z,5.77
2023-01-22T01:24:40.549Z,6.87
2023-01-22T01:27:31.505Z,5.93
2023-01-22T01:30:18.193Z,5.87
2023-01-22T01:33:05.481Z,5.37
2023-01-22T01:35:59.738Z,6.37
2023-01-22T01:38:46.586Z,6.57
2023-01-22T01:41:33.331Z,6.57
2023-01-22T01:44:22.433Z,5.83
2023-01-22T01:47:35.730Z,6.03
2023-01-22T01:50:25.272Z,7.07
2023-01-22T01:53:11.771Z,6.23
2023-01-22T01:56:00.133Z,6.33
2023-01-22T01:58:47.308Z,6.93
2023-01-22T02:01:33.995Z,6.60
2023-01-22T02:04:21.415Z,6.90
2023-01-22T02:07:08.028Z,6.13
2023-01-22T02:09:54.826Z,6.73
2023-01-22T02:12:41.226Z,6.20
2023-01-22T02:15:28.107Z,6.13
2023-01-22T02:18:14.406Z,6.87
2023-01-22T02:21:01.269Z,7.00
2023-01-22T02:23:48.122Z,6.47
2023-01-22T02:26:35.817Z,5.97
2023-01-22T02:29:22.954Z,7.07
2023-01-22T02:32:09.430Z,5.90
2023-01-22T02:34:57.332Z,6.23
2023-01-22T02:37:46.162Z,6.80
2023-01-22T02:40:33.759Z,6.33
2023-01-22T02:43:20.332Z,6.40
2023-01-22T02:46:06.927Z,6.87
2023-01-22T02:48:53.710Z,6.53
2023-01-22T02:51:40.292Z,6.57
2023-01-22T02:54:26.940Z,7.60
2023-01-22T02:57:13.479Z,5.67
2023-01-22T03:00:00.317Z,8.87
2023-01-22T03:02:46.867Z,7.00
2023-01-22T03:05:34.604Z,6.90
2023-01-22T03:08:26.657Z,7.27
2023-01-22T03:11:13.414Z,8.20
2023-01-22T03:14:20.782Z,6.77
2023-01-22T03:17:26.732Z,7.67
2023-01-22T03:20:31.889Z,8.13
2023-01-22T03:23:18.231Z,7.70
2023-01-22T03:26:05.599Z,7.63
2023-01-22T03:28:53.160Z,7.40
2023-01-22T03:31:40.489Z,7.93
2023-01-22T03:34:27.170Z,8.17
2023-01-22T03:37:16.515Z,7.13
2023-01-22T03:40:05.877Z,7.70
2023-01-22T03:42:58.024Z,7.47
2023-01-22T03:45:44.456Z,8.03
2023-01-22T03:48:34.417Z,8.90
2023-01-22T03:51:22.517Z,7.93
2023-01-22T03:54:12.942Z,8.17
2023-01-22T03:56:59.553Z,7.67
2023-01-22T03:59:50.739Z,7.33
2023-01-22T04:02:37.874Z,8.70
2023-01-22T04:05:33.746Z,8.57
2023-01-22T04:08:21.112Z,7.47
2023-01-22T04:11:09.372Z,7.87
2023-01-22T04:13:56.967Z,8.40
2023-01-22T04:16:46.526Z,8.00
2023-01-22T04:19:51.416Z,8.00
2023-01-22T04:22:55.836Z,7.67
2023-01-22T04:25:43.460Z,7.53
2023-01-22T04:28:29.814Z,8.67
2023-01-22T04:31:17.946Z,8.07
2023-01-22T04:34:27.332Z,7.97
2023-01-22T04:37:20.226Z,8.23
2023-01-22T04:40:07.473Z,8.27
2023-01-22T04:42:55.865Z,8.67
2023-01-22T04:45:43.173Z,7.40
2023-01-22T04:48:29.815Z,9.43
2023-01-22T04:51:16.087Z,8.90
2023-01-22T04:54:05.659Z,9.83
2023-01-22T04:56:52.783Z,8.80
2023-01-22T04:59:39.895Z,8.47
2023-01-22T05:02:26.295Z,11.53
2023-01-22T05:05:13.835Z,9.17
2023-01-22T05:08:00.681Z,9.20
2023-01-22T05:10:48.462Z,9.30
2023-01-22T05:13:46.761Z,11.63
2023-01-22T05:16:33.335Z,10.33
2023-01-22T05:19:19.738Z,15.97
2023-01-22T05:22:06.419Z,10.43
2023-01-22T05:24:53.014Z,9.80
2023-01-22T05:27:39.891Z,8.63
2023-01-22T05:30:32.512Z,8.70
2023-01-22T05:33:31.863Z,9.27
2023-01-22T05:36:18.254Z,10.50
2023-01-22T05:39:04.898Z,11.20
2023-01-22T05:41:52.315Z,15.87
2023-01-22T05:44:38.988Z,14.03
2023-01-22T05:47:25.401Z,17.93
2023-01-22T05:50:33.152Z,11.30
2023-01-22T05:53:26.777Z,10.53
2023-01-22T05:56:13.605Z,17.50
2023-01-22T05:59:00.343Z,14.70
2023-01-22T06:01:47.029Z,10.40
2023-01-22T06:04:33.892Z,10.30
2023-01-22T06:07:23.788Z,10.47
2023-01-22T06:10:10.559Z,8.77
2023-01-22T06:13:03.112Z,9.97
2023-01-22T06:15:49.810Z,9.33
2023-01-22T06:18:53.192Z,10.90
2023-01-22T06:21:40.381Z,12.40
2023-01-22T06:24:28.171Z,8.60
2023-01-22T06:27:14.797Z,10.00
2023-01-22T06:30:11.472Z,9.23
2023-01-22T06:32:57.794Z,9.57
2023-01-22T06:35:44.357Z,11.80
2023-01-22T06:38:32.093Z,13.07
2023-01-22T06:41:21.230Z,10.53
2023-01-22T06:44:14.613Z,10.40
2023-01-22T06:47:01.689Z,9.83
2023-01-22T06:49:49.945Z,11.20
2023-01-22T06:52:36.587Z,7.83
2023-01-22T06:55:23.226Z,9.57
2023-01-22T06:58:09.686Z,9.00
2023-01-22T07:01:00.517Z,8.03
2023-01-22T07:03:46.909Z,8.00
2023-01-22T07:06:33.590Z,8.70
2023-01-22T07:09:19.938Z,8.47
2023-01-22T07:12:06.427Z,9.67
2023-01-22T07:14:52.705Z,9.13
2023-01-22T07:17:39.123Z,8.97
2023-01-22T07:20:25.756Z,8.30
2023-01-22T07:23:11.909Z,10.10
2023-01-22T07:25:58.673Z,9.23
2023-01-22T07:28:45.814Z,8.83
2023-01-22T07:31:32.329Z,10.00
2023-01-22T07:34:18.785Z,17.77
2023-01-22T07:37:05.069Z,14.40
2023-01-22T07:39:51.748Z,17.43
2023-01-22T07:42:38.838Z,17.10
2023-01-22T07:45:26.218Z,12.40
2023-01-22T07:48:12.689Z,11.23
2023-01-22T07:51:05.386Z,10.50
2023-01-22T07:53:51.758Z,10.50
2023-01-22T07:56:38.053Z,12.73
2023-01-22T07:59:24.240Z,10.57
2023-01-22T08:02:13.094Z,9.83
2023-01-22T08:04:59.287Z,9.93
2023-01-22T08:07:45.699Z,11.03
2023-01-22T08:10:32.188Z,9.30
2023-01-22T08:13:18.879Z,9.50
2023-01-22T08:16:05.520Z,12.03
2023-01-22T08:18:51.934Z,9.90
2023-01-22T08:21:38.390Z,9.13
2023-01-22T08:24:25.291Z,9.47
2023-01-22T08:27:11.607Z,9.63
2023-01-22T08:29:58.051Z,9.07
2023-01-22T08:32:45.917Z,8.87
2023-01-22T08:35:32.469Z,9.27
2023-01-22T08:38:19.148Z,9.07
2023-01-22T08:41:05.471Z,9.87
2023-01-22T08:43:53.251Z,9.10
2023-01-22T08:46:42.697Z,7.33
2023-01-22T08:49:30.969Z,10.53
2023-01-22T08:52:17.601Z,9.50
2023-01-22T08:55:06.727Z,9.10
2023-01-22T08:57:56.907Z,8.80
2023-01-22T09:00:44.620Z,8.53
2023-01-22T09:03:31.036Z,9.17
2023-01-22T09:06:17.325Z,9.13
2023-01-22T09:09:04.314Z,10.10
2023-01-22T09:11:50.608Z,10.77
2023-01-22T09:14:36.940Z,10.63
2023-01-22T09:17:23.234Z,10.20
2023-01-22T09:20:10.177Z,9.53
2023-01-22T09:22:56.742Z,7.83
2023-01-22T09:25:43.484Z,10.30
2023-01-22T09:28:29.923Z,8.60
2023-01-22T09:31:20.620Z,8.17
2023-01-22T09:34:07.038Z,6.70
2023-01-22T09:36:53.499Z,9.13
2023-01-22T09:39:39.650Z,7.43
2023-01-22T09:42:31.259Z,8.27
2023-01-22T09:45:21.220Z,11.97
2023-01-22T09:48:17.693Z,7.73
2023-01-22T09:51:05.212Z,7.23
2023-01-22T09:53:58.401Z,8.10
2023-01-22T09:56:47.322Z,8.93
2023-01-22T09:59:48.418Z,7.50
2023-01-22T10:02:44.811Z,9.03
2023-01-22T10:05:33.970Z,8.83
2023-01-22T10:08:23.411Z,9.53
2023-01-22T10:11:10.299Z,9.00
2023-01-22T10:14:00.594Z,8.20
2023-01-22T10:16:47.363Z,6.97
2023-01-22T10:19:42.325Z,7.80
2023-01-22T10:22:28.755Z,13.13
2023-01-22T10:25:16.762Z,13.23
2023-01-22T10:28:04.277Z,9.37
2023-01-22T10:30:53.089Z,7.83
2023-01-22T10:33:44.389Z,7.83
2023-01-22T10:36:32.033Z,7.23
2023-01-22T10:39:19.651Z,7.57
2023-01-22T10:42:06.288Z,7.47
2023-01-22T10:45:19.389Z,5.70
2023-01-22T10:48:12.285Z,7.63
2023-01-22T10:51:03.622Z,5.90
2023-01-22T10:53:59.963Z,5.10
2023-01-22T10:56:47.325Z,5.30
2023-01-22T10:59:34.376Z,6.20
2023-01-22T11:02:24.541Z,6.23
2023-01-22T11:05:24.405Z,5.77
2023-01-22T11:08:21.244Z,4.37
2023-01-22T11:11:10.841Z,4.93
2023-01-22T11:14:27.406Z,6.30
2023-01-22T11:17:23.088Z,5.00
2023-01-22T11:20:30.663Z,4.37
2023-01-22T11:23:26.459Z,5.77
2023-01-22T11:26:29.928Z,5.87
2023-01-22T11:29:32.202Z,5.00
2023-01-22T11:32:47.631Z,4.53
2023-01-22T11:35:52.738Z,3.87
2023-01-22T11:38:51.244Z,4.33
2023-01-22T11:42:10.107Z,4.20
2023-01-22T11:45:31.247Z,3.77
2023-01-22T11:48:54.761Z,4.27
2023-01-22T11:51:53.078Z,3.90
2023-01-22T11:55:22.310Z,3.40
2023-01-22T11:58:29.174Z,4.20
2023-01-22T12:01:31.594Z,3.70
2023-01-22T12:04:49.353Z,4.60
2023-01-22T12:07:53.774Z,4.83
2023-01-22T12:11:00.671Z,4.20
2023-01-22T12:14:10.619Z,3.40
2023-01-22T12:17:00.044Z,3.60
2023-01-22T12:20:08.370Z,3.70
2023-01-22T12:23:13.762Z,3.30
2023-01-22T12:26:06.817Z,3.80
2023-01-22T12:29:16.443Z,3.27
2023-01-22T12:32:08.922Z,4.07
2023-01-22T12:35:09.024Z,3.67
2023-01-22T12:38:15.053Z,3.70
2023-01-22T12:41:16.517Z,3.07
2023-01-22T12:44:19.425Z,3.57
2023-01-22T12:47:31.800Z,3.13
2023-01-22T12:50:21.170Z,3.50
2023-01-22T12:53:33.159Z,3.90
2023-01-22T12:56:32.997Z,2.90
2023-01-22T12:59:40.447Z,3.60
2023-01-22T13:02:26.881Z,3.70
2023-01-22T13:05:25.712Z,3.60
2023-01-22T13:08:15.558Z,4.30
2023-01-22T13:11:05.366Z,3.50
2023-01-22T13:14:18.274Z,3.33
2023-01-22T13:17:27.414Z,2.90
2023-01-22T13:20:17.522Z,3.67
2023-01-22T13:23:07.231Z,3.63
2023-01-22T13:25:58.214Z,3.43
2023-01-22T13:28:52.134Z,4.03
2023-01-22T13:31:38.598Z,3.37
2023-01-22T13:34:26.823Z,3.30
2023-01-22T13:37:24.905Z,3.17
2023-01-22T13:40:11.440Z,3.57
2023-01-22T13:42:59.094Z,2.80
2023-01-22T13:45:46.142Z,3.47
2023-01-22T13:48:32.887Z,2.80
2023-01-22T13:51:21.625Z,3.30
2023-01-22T13:54:16.609Z,3.07
2023-01-22T13:57:03.166Z,4.50
2023-01-22T14:00:00.104Z,4.13
2023-01-22T14:02:47.237Z,4.63
2023-01-22T14:05:35.966Z,3.27
2023-01-22T14:08:22.091Z,4.53
2023-01-22T14:11:08.512Z,3.10
2023-01-22T14:13:54.903Z,2.93
2023-01-22T14:16:41.583Z,3.97
2023-01-22T14:19:28.989Z,3.67
2023-01-22T14:22:15.292Z,4.63
2023-01-22T14:25:01.524Z,3.43
2023-01-22T14:27:49.639Z,3.00
2023-01-22T14:30:36.343Z,3.50
2023-01-22T14:33:26.409Z,3.03
2023-01-22T14:36:12.924Z,3.60
2023-01-22T14:38:59.276Z,3.73
2023-01-22T14:41:45.759Z,3.47
2023-01-22T14:44:32.522Z,2.90
2023-01-22T14:47:18.828Z,5.37
2023-01-22T14:50:06.943Z,4.00
2023-01-22T14:52:54.144Z,3.77
2023-01-22T14:55:42.520Z,3.63
2023-01-22T14:58:29.040Z,3.57
2023-01-22T15:01:20.855Z,3.63
2023-01-22T15:04:07.505Z,3.27
2023-01-22T15:06:53.868Z,4.97
2023-01-22T15:09:40.595Z,4.07
2023-01-22T15:12:27.308Z,3.00
2023-01-22T15:15:22.884Z,3.47
2023-01-22T15:18:09.951Z,3.17
2023-01-22T15:20:56.247Z,4.07
2023-01-22T15:23:42.495Z,4.37
2023-01-22T15:26:33.341Z,7.67
2023-01-22T15:29:19.645Z,4.87
2023-01-22T15:32:06.223Z,4.50
2023-01-22T15:34:52.490Z,4.30
2023-01-22T15:37:39.063Z,4.93
2023-01-22T15:40:25.326Z,12.07
2023-01-22T15:43:11.727Z,7.60
2023-01-22T15:45:58.038Z,13.00
2023-01-22T15:48:44.584Z,7.77
2023-01-22T15:51:31.707Z,6.10
2023-01-22T15:54:18.363Z,5.97
2023-01-22T15:57:04.655Z,5.87
2023-01-22T15:59:51.500Z,4.20
2023-01-22T16:02:37.910Z,5.20
2023-01-22T16:05:24.286Z,5.60
2023-01-22T16:08:10.762Z,4.90
2023-01-22T16:10:56.950Z,6.90
2023-01-22T16:13:43.932Z,8.13
2023-01-22T16:16:33.094Z,9.37
2023-01-22T16:19:19.618Z,14.63
2023-01-22T16:22:05.907Z,11.07
2023-01-22T16:24:52.191Z,10.70
2023-01-22T16:27:38.958Z,7.30
2023-01-22T16:30:25.660Z,7.93
2023-01-22T16:33:23.454Z,9.53
2023-01-22T16:36:16.566Z,8.60
2023-01-22T16:39:04.016Z,5.53
2023-01-22T16:41:51.807Z,12.43
2023-01-22T16:44:38.299Z,9.40
2023-01-22T16:47:24.718Z,5.17
2023-01-22T16:50:11.468Z,5.20
2023-01-22T16:52:58.086Z,6.60
2023-01-22T16:55:44.552Z,5.63
2023-01-22T16:58:31.186Z,6.97
2023-01-22T17:01:17.733Z,6.70
2023-01-22T17:04:04.271Z,6.17
2023-01-22T17:06:53.085Z,5.47
2023-01-22T17:09:39.760Z,9.30
2023-01-22T17:12:26.482Z,8.40
2023-01-22T17:15:13.102Z,6.13
2023-01-22T17:17:59.946Z,5.70
2023-01-22T17:21:01.224Z,7.37
2023-01-22T17:23:48.209Z,8.87
2023-01-22T17:26:34.497Z,11.57
2023-01-22T17:29:21.644Z,8.00
2023-01-22T17:32:08.319Z,6.93
2023-01-22T17:34:54.683Z,6.93
2023-01-22T17:37:41.854Z,7.67
2023-01-22T17:40:29.309Z,7.47
2023-01-22T17:43:15.667Z,5.43
2023-01-22T17:46:02.364Z,5.07
2023-01-22T17:48:50.900Z,4.17
2023-01-22T17:51:37.227Z,4.73
2023-01-22T17:54:23.574Z,5.03
2023-01-22T17:57:10.742Z,4.97
2023-01-22T17:59:57.326Z,4.57
2023-01-22T18:02:43.779Z,4.80
2023-01-22T18:05:32.758Z,3.90
2023-01-22T18:08:20.630Z,3.80
2023-01-22T18:11:12.056Z,4.57
2023-01-22T18:14:00.816Z,4.20
2023-01-22T18:16:47.625Z,4.10
2023-01-22T18:19:33.874Z,4.60
2023-01-22T18:22:20.578Z,4.60
2023-01-22T18:25:06.835Z,3.97
2023-01-22T18:27:53.258Z,4.40
2023-01-22T18:30:39.816Z,4.20
2023-01-22T18:33:26.310Z,4.40
2023-01-22T18:36:15.469Z,4.73
2023-01-22T18:39:08.744Z,4.67
2023-01-22T18:41:54.949Z,5.03
2023-01-22T18:44:41.215Z,4.47
2023-01-22T18:47:27.677Z,4.30
2023-01-22T18:50:16.620Z,4.43
2023-01-22T18:53:03.974Z,4.57
2023-01-22T18:55:50.673Z,3.50
2023-01-22T18:58:38.581Z,4.10
2023-01-22T19:01:31.089Z,4.03
2023-01-22T19:04:21.599Z,5.10
2023-01-22T19:07:08.251Z,4.33
2023-01-22T19:09:54.514Z,4.70
2023-01-22T19:12:40.801Z,6.17
2023-01-22T19:15:28.100Z,4.40
2023-01-22T19:18:14.365Z,4.80
2023-01-22T19:21:10.602Z,4.93
2023-01-22T19:23:58.992Z,5.00
2023-01-22T19:26:46.774Z,5.63
2023-01-22T19:29:33.556Z,5.50
2023-01-22T19:32:27.483Z,4.27
2023-01-22T19:35:14.327Z,5.40
2023-01-22T19:38:00.786Z,4.70
2023-01-22T19:40:47.343Z,4.57
2023-01-22T19:43:33.833Z,4.87
2023-01-22T19:46:20.129Z,5.23
2023-01-22T19:49:08.344Z,4.40
2023-01-22T19:51:54.533Z,3.80
2023-01-22T19:54:47.214Z,4.47
2023-01-22T19:57:33.851Z,9.57
2023-01-22T20:00:20.523Z,6.43
2023-01-22T20:03:09.267Z,7.47
2023-01-22T20:05:55.475Z,10.67
2023-01-22T20:08:42.657Z,7.80
2023-01-22T20:11:29.231Z,4.73
2023-01-22T20:14:15.832Z,7.20
2023-01-22T20:17:02.850Z,5.20
2023-01-22T20:19:49.079Z,6.13
2023-01-22T20:22:35.303Z,7.50
2023-01-22T20:25:22.441Z,6.23
2023-01-22T20:28:10.776Z,6.17
2023-01-22T20:30:59.664Z,7.23
2023-01-22T20:33:46.315Z,7.23
2023-01-22T20:36:32.564Z,6.43
2023-01-22T20:39:19.652Z,5.20
2023-01-22T20:42:06.337Z,5.30
2023-01-22T20:44:52.806Z,5.97
2023-01-22T20:47:39.415Z,6.27
2023-01-22T20:50:25.748Z,6.23
2023-01-22T20:53:11.978Z,5.63
2023-01-22T20:55:59.665Z,5.70
2023-01-22T20:58:46.778Z,5.03
2023-01-22T21:01:33.976Z,4.70
2023-01-22T21:04:20.982Z,4.80
2023-01-22T21:07:07.608Z,3.93
2023-01-22T21:09:53.856Z,4.30
2023-01-22T21:12:42.955Z,3.77
2023-01-22T21:15:29.574Z,4.60
2023-01-22T21:18:15.691Z,4.30
2023-01-22T21:21:04.932Z,4.37
2023-01-22T21:23:54.116Z,4.93
2023-01-22T21:26:40.686Z,5.43
2023-01-22T21:29:27.244Z,4.17
2023-01-22T21:32:15.264Z,5.10
2023-01-22T21:35:02.146Z,5.23
2023-01-22T21:37:48.416Z,5.80
2023-01-22T21:40:34.663Z,5.30
2023-01-22T21:43:44.157Z,6.97
2023-01-22T21:46:38.260Z,4.90
2023-01-22T21:49:24.838Z,5.30
2023-01-22T21:52:11.259Z,5.07
2023-01-22T21:54:58.398Z,5.17
2023-01-22T21:57:44.836Z,5.33
2023-01-22T22:00:31.989Z,5.37
2023-01-22T22:03:18.554Z,6.07
2023-01-22T22:06:05.246Z,5.23
2023-01-22T22:08:51.785Z,5.27
2023-01-22T22:11:38.217Z,5.43
2023-01-22T22:14:25.563Z,6.07
2023-01-22T22:17:11.965Z,5.63
2023-01-22T22:19:58.269Z,5.53
2023-01-22T22:22:45.855Z,6.43
2023-01-22T22:25:33.328Z,6.20
2023-01-22T22:28:19.457Z,4.80
2023-01-22T22:31:12.502Z,5.57
2023-01-22T22:33:59.140Z,5.23
2023-01-22T22:36:45.320Z,5.27
2023-01-22T22:39:32.306Z,6.33
2023-01-22T22:42:18.799Z,5.37
2023-01-22T22:45:05.595Z,5.50
2023-01-22T22:47:51.671Z,6.50
2023-01-22T22:50:40.945Z,5.47
2023-01-22T22:53:27.475Z,5.90
2023-01-22T22:56:14.599Z,5.20
2023-01-22T22:59:01.292Z,5.67
2023-01-22T23:01:48.933Z,6.00
2023-01-22T23:04:35.921Z,5.80
2023-01-22T23:07:22.434Z,5.90
2023-01-22T23:10:28.730Z,5.70
2023-01-22T23:13:15.145Z,4.77
2023-01-22T23:16:12.756Z,5.47
2023-01-22T23:19:02.294Z,5.70
2023-01-22T23:21:53.663Z,5.97
2023-01-22T23:24:40.011Z,4.80
2023-01-22T23:27:26.256Z,5.70
2023-01-22T23:30:13.321Z,5.50
2023-01-22T23:32:59.411Z,5.13
2023-01-22T23:35:45.810Z,5.63
2023-01-22T23:38:32.030Z,5.53
2023-01-22T23:41:19.662Z,5.17
2023-01-22T23:44:07.188Z,4.83
2023-01-22T23:46:53.535Z,4.70
2023-01-22T23:49:39.658Z,5.43
2023-01-22T23:52:26.028Z,6.40
2023-01-22T23:55:12.959Z,5.70
2023-01-22T23:57:59.850Z,5.90
